sensor_id;sensor_type;location;lat;lon;timestamp;pressure;altitude;pressure_sealevel;temperature;humidity
63568;BME280;49715;42.386;20.434;2022-12-10T00:01:08;96544.16;;;14.73;56.28
63568;BME280;49715;42.386;20.434;2022-12-10T00:03:35;96552.94;;;14.73;57.16
63568;BME280;49715;42.386;20.434;2022-12-10T00:06:03;96556.41;;;14.74;56.83
63568;BME280;49715;42.386;20.434;2022-12-10T00:08:30;96569.91;;;14.79;57.00
63568;BME280;49715;42.386;20.434;2022-12-10T00:10:57;96571.53;;;14.80;57.06
63568;BME280;49715;42.386;20.434;2022-12-10T00:13:23;96578.47;;;14.81;57.04
63568;BME280;49715;42.386;20.434;2022-12-10T00:15:49;96585.19;;;14.77;56.86
63568;BME280;49715;42.386;20.434;2022-12-10T00:18:16;96579.28;;;14.75;57.03
63568;BME280;49715;42.386;20.434;2022-12-10T00:20:42;96574.38;;;14.78;57.03
63568;BME280;49715;42.386;20.434;2022-12-10T00:23:08;96561.31;;;14.77;57.14
63568;BME280;49715;42.386;20.434;2022-12-10T00:25:35;96562.72;;;14.73;57.06
63568;BME280;49715;42.386;20.434;2022-12-10T00:28:01;96560.06;;;14.73;57.06
63568;BME280;49715;42.386;20.434;2022-12-10T00:30:27;96562.56;;;14.74;57.12
63568;BME280;49715;42.386;20.434;2022-12-10T00:32:54;96553.13;;;14.72;57.21
63568;BME280;49715;42.386;20.434;2022-12-10T00:35:20;96558.66;;;14.70;57.11
63568;BME280;49715;42.386;20.434;2022-12-10T00:37:47;96555.19;;;14.70;57.24
63568;BME280;49715;42.386;20.434;2022-12-10T00:40:13;96553.53;;;14.68;57.38
63568;BME280;49715;42.386;20.434;2022-12-10T00:42:39;96546.81;;;14.73;57.36
63568;BME280;49715;42.386;20.434;2022-12-10T00:45:06;96537.44;;;14.77;57.33
63568;BME280;49715;42.386;20.434;2022-12-10T00:47:33;96532.94;;;14.71;57.48
63568;BME280;49715;42.386;20.434;2022-12-10T00:49:59;96546.81;;;14.73;57.47
63568;BME280;49715;42.386;20.434;2022-12-10T00:52:25;96548.03;;;14.70;57.45
63568;BME280;49715;42.386;20.434;2022-12-10T00:54:52;96548.84;;;14.71;57.53
63568;BME280;49715;42.386;20.434;2022-12-10T00:57:18;96538.84;;;14.66;57.54
63568;BME280;49715;42.386;20.434;2022-12-10T00:59:44;96531.28;;;14.63;57.55
63568;BME280;49715;42.386;20.434;2022-12-10T01:02:10;96536.78;;;14.61;57.80
63568;BME280;49715;42.386;20.434;2022-12-10T01:04:37;96534.34;;;14.60;57.81
63568;BME280;49715;42.386;20.434;2022-12-10T01:07:03;96547.59;;;14.60;57.77
63568;BME280;49715;42.386;20.434;2022-12-10T01:09:30;96545.94;;;14.59;57.88
63568;BME280;49715;42.386;20.434;2022-12-10T01:12:00;96554.75;;;14.59;57.91
63568;BME280;49715;42.386;20.434;2022-12-10T01:14:32;96561.66;;;14.60;57.86
63568;BME280;49715;42.386;20.434;2022-12-10T01:17:04;96550.41;;;14.58;57.91
63568;BME280;49715;42.386;20.434;2022-12-10T01:19:32;96544.13;;;14.59;58.00
63568;BME280;49715;42.386;20.434;2022-12-10T01:22:01;96540.22;;;14.55;58.16
63568;BME280;49715;42.386;20.434;2022-12-10T01:24:29;96521.47;;;14.57;58.15
63568;BME280;49715;42.386;20.434;2022-12-10T01:26:55;96516.75;;;14.59;58.11
63568;BME280;49715;42.386;20.434;2022-12-10T01:29:23;96507.00;;;14.59;58.36
63568;BME280;49715;42.386;20.434;2022-12-10T01:31:50;96505.13;;;14.53;58.32
63568;BME280;49715;42.386;20.434;2022-12-10T01:34:17;96505.34;;;14.58;58.36
63568;BME280;49715;42.386;20.434;2022-12-10T01:36:45;96496.78;;;14.56;58.58
63568;BME280;49715;42.386;20.434;2022-12-10T01:39:16;96503.72;;;14.57;58.61
63568;BME280;49715;42.386;20.434;2022-12-10T01:42:02;96495.97;;;14.56;58.54
63568;BME280;49715;42.386;20.434;2022-12-10T01:46:57;96495.56;;;14.59;58.73
63568;BME280;49715;42.386;20.434;2022-12-10T01:49:36;96485.56;;;14.54;58.65
63568;BME280;49715;42.386;20.434;2022-12-10T01:52:06;96482.50;;;14.57;58.83
63568;BME280;49715;42.386;20.434;2022-12-10T01:54:35;96482.72;;;14.56;58.93
63568;BME280;49715;42.386;20.434;2022-12-10T01:57:06;96471.88;;;14.51;58.86
63568;BME280;49715;42.386;20.434;2022-12-10T01:59:35;96462.69;;;14.53;59.06
63568;BME280;49715;42.386;20.434;2022-12-10T02:10:35;96465.31;;;14.47;59.63
63568;BME280;49715;42.386;20.434;2022-12-10T02:16:06;96453.06;;;14.46;59.57
63568;BME280;49715;42.386;20.434;2022-12-10T02:18:39;96446.94;;;14.45;59.60
63568;BME280;49715;42.386;20.434;2022-12-10T02:21:17;96444.47;;;14.43;59.57
63568;BME280;49715;42.386;20.434;2022-12-10T02:23:50;96433.69;;;14.45;59.71
63568;BME280;49715;42.386;20.434;2022-12-10T02:31:34;96419.00;;;14.42;59.78
63568;BME280;49715;42.386;20.434;2022-12-10T02:34:03;96419.25;;;14.48;59.97
63568;BME280;49715;42.386;20.434;2022-12-10T02:36:35;96405.53;;;14.44;59.83
63568;BME280;49715;42.386;20.434;2022-12-10T02:39:07;96405.13;;;14.47;60.09
63568;BME280;49715;42.386;20.434;2022-12-10T02:41:48;96412.09;;;14.48;60.02
63568;BME280;49715;42.386;20.434;2022-12-10T02:44:19;96407.63;;;14.49;60.04
63568;BME280;49715;42.386;20.434;2022-12-10T02:46:48;96412.91;;;14.49;60.26
63568;BME280;49715;42.386;20.434;2022-12-10T02:49:17;96411.91;;;14.50;60.23
63568;BME280;49715;42.386;20.434;2022-12-10T02:51:44;96403.13;;;14.49;60.16
63568;BME280;49715;42.386;20.434;2022-12-10T02:57:00;96401.94;;;14.58;60.10
63568;BME280;49715;42.386;20.434;2022-12-10T02:59:41;96403.59;;;14.59;59.99
63568;BME280;49715;42.386;20.434;2022-12-10T03:02:21;96396.63;;;14.58;60.07
63568;BME280;49715;42.386;20.434;2022-12-10T03:04:58;96408.03;;;14.59;60.05
63568;BME280;49715;42.386;20.434;2022-12-10T03:07:37;96404.63;;;14.65;60.03
63568;BME280;49715;42.386;20.434;2022-12-10T03:10:11;96415.22;;;14.65;59.88
63568;BME280;49715;42.386;20.434;2022-12-10T03:12:48;96412.97;;;14.68;60.04
63568;BME280;49715;42.386;20.434;2022-12-10T03:15:17;96410.09;;;14.63;60.12
63568;BME280;49715;42.386;20.434;2022-12-10T03:17:47;96409.31;;;14.70;59.94
63568;BME280;49715;42.386;20.434;2022-12-10T03:20:15;96408.28;;;14.71;60.10
63568;BME280;49715;42.386;20.434;2022-12-10T03:22:45;96397.91;;;14.69;60.20
63568;BME280;49715;42.386;20.434;2022-12-10T03:25:17;96401.97;;;14.72;60.05
63568;BME280;49715;42.386;20.434;2022-12-10T03:27:48;96402.38;;;14.75;59.92
63568;BME280;49715;42.386;20.434;2022-12-10T03:30:18;96400.94;;;14.73;60.10
63568;BME280;49715;42.386;20.434;2022-12-10T03:32:45;96394.22;;;14.70;60.00
63568;BME280;49715;42.386;20.434;2022-12-10T03:35:12;96403.19;;;14.76;60.05
63568;BME280;49715;42.386;20.434;2022-12-10T03:37:40;96392.97;;;14.73;60.00
63568;BME280;49715;42.386;20.434;2022-12-10T03:40:08;96395.66;;;14.79;60.04
63568;BME280;49715;42.386;20.434;2022-12-10T03:42:37;96392.78;;;14.81;60.14
63568;BME280;49715;42.386;20.434;2022-12-10T03:45:04;96397.50;;;14.85;60.22
63568;BME280;49715;42.386;20.434;2022-12-10T03:47:31;96395.28;;;14.89;60.17
63568;BME280;49715;42.386;20.434;2022-12-10T03:49:57;96378.50;;;14.82;60.12
63568;BME280;49715;42.386;20.434;2022-12-10T03:52:24;96388.72;;;14.91;60.12
63568;BME280;49715;42.386;20.434;2022-12-10T03:54:51;96390.56;;;14.91;60.16
63568;BME280;49715;42.386;20.434;2022-12-10T03:57:21;96383.19;;;14.93;60.22
63568;BME280;49715;42.386;20.434;2022-12-10T03:59:47;96381.19;;;14.95;60.13
63568;BME280;49715;42.386;20.434;2022-12-10T04:02:14;96374.44;;;14.99;59.87
63568;BME280;49715;42.386;20.434;2022-12-10T04:04:41;96373.84;;;15.04;60.25
63568;BME280;49715;42.386;20.434;2022-12-10T04:07:09;96373.84;;;15.04;60.08
63568;BME280;49715;42.386;20.434;2022-12-10T04:09:36;96372.81;;;15.05;60.30
63568;BME280;49715;42.386;20.434;2022-12-10T04:12:02;96349.94;;;14.97;60.17
63568;BME280;49715;42.386;20.434;2022-12-10T04:14:29;96364.25;;;15.09;60.28
63568;BME280;49715;42.386;20.434;2022-12-10T04:17:14;96365.06;;;15.10;60.24
63568;BME280;49715;42.386;20.434;2022-12-10T04:19:41;96365.44;;;15.07;60.20
63568;BME280;49715;42.386;20.434;2022-12-10T04:22:09;96370.78;;;15.13;60.11
63568;BME280;49715;42.386;20.434;2022-12-10T04:24:54;96378.31;;;15.16;60.14
63568;BME280;49715;42.386;20.434;2022-12-10T04:27:39;96373.81;;;15.17;60.18
63568;BME280;49715;42.386;20.434;2022-12-10T04:30:08;96363.41;;;15.15;60.13
63568;BME280;49715;42.386;20.434;2022-12-10T04:32:35;96362.22;;;15.18;60.11
63568;BME280;49715;42.386;20.434;2022-12-10T04:35:03;96360.53;;;15.17;60.12
63568;BME280;49715;42.386;20.434;2022-12-10T04:37:30;96360.75;;;15.22;60.02
63568;BME280;49715;42.386;20.434;2022-12-10T04:39:56;96357.28;;;15.22;60.15
63568;BME280;49715;42.386;20.434;2022-12-10T04:42:24;96367.31;;;15.19;60.26
63568;BME280;49715;42.386;20.434;2022-12-10T04:44:51;96356.06;;;15.11;60.44
63568;BME280;49715;42.386;20.434;2022-12-10T04:47:18;96361.78;;;15.14;60.28
63568;BME280;49715;42.386;20.434;2022-12-10T04:49:45;96365.03;;;15.16;60.34
63568;BME280;49715;42.386;20.434;2022-12-10T04:52:13;96368.94;;;15.20;60.27
63568;BME280;49715;42.386;20.434;2022-12-10T04:54:42;96367.31;;;15.19;60.22
63568;BME280;49715;42.386;20.434;2022-12-10T04:57:09;96364.25;;;15.23;60.18
63568;BME280;49715;42.386;20.434;2022-12-10T04:59:35;96366.69;;;15.24;60.23
63568;BME280;49715;42.386;20.434;2022-12-10T05:02:03;96371.78;;;15.26;60.09
63568;BME280;49715;42.386;20.434;2022-12-10T05:04:30;96365.06;;;15.23;60.00
63568;BME280;49715;42.386;20.434;2022-12-10T05:06:57;96377.91;;;15.26;60.12
63568;BME280;49715;42.386;20.434;2022-12-10T05:09:25;96370.97;;;15.25;60.29
63568;BME280;49715;42.386;20.434;2022-12-10T05:11:51;96377.91;;;15.26;60.23
63568;BME280;49715;42.386;20.434;2022-12-10T05:14:18;96370.16;;;15.25;60.41
63568;BME280;49715;42.386;20.434;2022-12-10T05:16:45;96379.34;;;15.29;60.20
63568;BME280;49715;42.386;20.434;2022-12-10T05:19:12;96367.69;;;15.30;60.44
63568;BME280;49715;42.386;20.434;2022-12-10T05:21:39;96366.06;;;15.29;60.38
63568;BME280;49715;42.386;20.434;2022-12-10T05:24:25;96364.22;;;15.29;60.54
63568;BME280;49715;42.386;20.434;2022-12-10T05:26:51;96376.88;;;15.34;60.46
63568;BME280;49715;42.386;20.434;2022-12-10T05:29:18;96374.00;;;15.35;60.65
63568;BME280;49715;42.386;20.434;2022-12-10T05:31:46;96378.13;;;15.38;60.60
63568;BME280;49715;42.386;20.434;2022-12-10T05:34:13;96378.94;;;15.38;60.62
63568;BME280;49715;42.386;20.434;2022-12-10T05:36:40;96380.75;;;15.38;60.59
63568;BME280;49715;42.386;20.434;2022-12-10T05:39:07;96371.34;;;15.35;60.76
63568;BME280;49715;42.386;20.434;2022-12-10T05:41:38;96377.09;;;15.39;60.66
63568;BME280;49715;42.386;20.434;2022-12-10T05:44:05;96392.19;;;15.38;60.72
63568;BME280;49715;42.386;20.434;2022-12-10T05:46:34;96374.66;;;15.37;60.78
63568;BME280;49715;42.386;20.434;2022-12-10T05:49:03;96368.50;;;15.37;60.79
63568;BME280;49715;42.386;20.434;2022-12-10T05:51:32;96366.47;;;15.39;60.91
63568;BME280;49715;42.386;20.434;2022-12-10T05:54:00;96368.31;;;15.38;60.81
63568;BME280;49715;42.386;20.434;2022-12-10T05:56:30;96368.91;;;15.34;60.92
63568;BME280;49715;42.386;20.434;2022-12-10T05:59:00;96362.38;;;15.30;60.89
63568;BME280;49715;42.386;20.434;2022-12-10T06:01:29;96361.56;;;15.29;60.90
63568;BME280;49715;42.386;20.434;2022-12-10T06:03:59;96359.13;;;15.28;60.72
63568;BME280;49715;42.386;20.434;2022-12-10T06:06:29;96359.53;;;15.25;60.94
63568;BME280;49715;42.386;20.434;2022-12-10T06:08:57;96347.47;;;15.22;61.06
63568;BME280;49715;42.386;20.434;2022-12-10T06:11:25;96358.94;;;15.23;61.23
63568;BME280;49715;42.386;20.434;2022-12-10T06:13:53;96365.47;;;15.20;61.34
63568;BME280;49715;42.386;20.434;2022-12-10T06:16:21;96359.75;;;15.16;61.24
63568;BME280;49715;42.386;20.434;2022-12-10T06:18:48;96366.66;;;15.17;61.49
63568;BME280;49715;42.386;20.434;2022-12-10T06:21:17;96359.53;;;15.11;61.60
63568;BME280;49715;42.386;20.434;2022-12-10T06:23:44;96354.66;;;15.08;61.58
63568;BME280;49715;42.386;20.434;2022-12-10T06:26:12;96368.75;;;15.09;62.17
63568;BME280;49715;42.386;20.434;2022-12-10T06:28:40;96370.56;;;15.15;61.75
63568;BME280;49715;42.386;20.434;2022-12-10T06:31:06;96371.78;;;15.06;62.54
63568;BME280;49715;42.386;20.434;2022-12-10T06:33:34;96374.44;;;15.06;61.98
63568;BME280;49715;42.386;20.434;2022-12-10T06:36:04;96380.34;;;15.01;62.95
63568;BME280;49715;42.386;20.434;2022-12-10T06:38:38;96380.16;;;15.03;62.14
63568;BME280;49715;42.386;20.434;2022-12-10T06:41:06;96363.63;;;14.94;62.28
63568;BME280;49715;42.386;20.434;2022-12-10T06:43:34;96369.75;;;14.94;62.44
63568;BME280;49715;42.386;20.434;2022-12-10T06:46:10;96358.13;;;14.89;62.82
63568;BME280;49715;42.386;20.434;2022-12-10T06:48:37;96350.75;;;14.91;62.79
63568;BME280;49715;42.386;20.434;2022-12-10T06:51:05;96356.50;;;14.94;62.76
63568;BME280;49715;42.386;20.434;2022-12-10T06:53:34;96351.78;;;14.97;62.90
63568;BME280;49715;42.386;20.434;2022-12-10T06:56:02;96341.81;;;14.99;62.84
63568;BME280;49715;42.386;20.434;2022-12-10T06:58:31;96348.53;;;15.01;62.96
63568;BME280;49715;42.386;20.434;2022-12-10T07:01:10;96346.06;;;15.06;62.83
63568;BME280;49715;42.386;20.434;2022-12-10T07:03:38;96345.66;;;15.09;62.83
63568;BME280;49715;42.386;20.434;2022-12-10T07:06:07;96342.19;;;15.09;62.84
63568;BME280;49715;42.386;20.434;2022-12-10T07:08:35;96338.94;;;15.13;62.99
63568;BME280;49715;42.386;20.434;2022-12-10T07:11:06;96350.38;;;15.14;62.92
63568;BME280;49715;42.386;20.434;2022-12-10T07:13:34;96347.50;;;15.15;62.99
63568;BME280;49715;42.386;20.434;2022-12-10T07:16:01;96350.16;;;15.15;62.91
63568;BME280;49715;42.386;20.434;2022-12-10T07:18:28;96352.19;;;15.20;62.91
63568;BME280;49715;42.386;20.434;2022-12-10T07:20:55;96349.75;;;15.18;63.02
63568;BME280;49715;42.386;20.434;2022-12-10T07:23:22;96336.06;;;15.15;62.84
63568;BME280;49715;42.386;20.434;2022-12-10T07:25:48;96344.22;;;15.27;62.77
63568;BME280;49715;42.386;20.434;2022-12-10T07:28:15;96340.34;;;15.29;62.74
63568;BME280;49715;42.386;20.434;2022-12-10T07:30:41;96346.25;;;15.38;62.68
63568;BME280;49715;42.386;20.434;2022-12-10T07:33:07;96337.66;;;15.42;62.75
63568;BME280;49715;42.386;20.434;2022-12-10T07:35:34;96327.66;;;15.44;62.58
63568;BME280;49715;42.386;20.434;2022-12-10T07:38:00;96318.47;;;15.47;62.61
63568;BME280;49715;42.386;20.434;2022-12-10T07:40:27;96323.13;;;15.58;62.54
63568;BME280;49715;42.386;20.434;2022-12-10T07:42:53;96309.22;;;15.56;62.50
63568;BME280;49715;42.386;20.434;2022-12-10T07:45:20;96316.16;;;15.70;62.53
63568;BME280;49715;42.386;20.434;2022-12-10T07:47:46;96306.75;;;15.75;62.37
63568;BME280;49715;42.386;20.434;2022-12-10T07:50:13;96305.88;;;15.81;62.50
63568;BME280;49715;42.386;20.434;2022-12-10T07:52:45;96303.84;;;15.83;62.27
63568;BME280;49715;42.386;20.434;2022-12-10T07:55:11;96310.38;;;15.87;62.30
63568;BME280;49715;42.386;20.434;2022-12-10T07:57:38;96312.81;;;15.88;62.30
63568;BME280;49715;42.386;20.434;2022-12-10T08:00:05;96315.44;;;15.95;62.26
63568;BME280;49715;42.386;20.434;2022-12-10T08:02:38;96317.47;;;16.00;62.17
63568;BME280;49715;42.386;20.434;2022-12-10T08:05:04;96317.28;;;16.01;62.08
63568;BME280;49715;42.386;20.434;2022-12-10T08:07:32;96312.13;;;16.06;62.36
63568;BME280;49715;42.386;20.434;2022-12-10T08:09:58;96307.00;;;16.05;62.21
63568;BME280;49715;42.386;20.434;2022-12-10T08:12:24;96313.72;;;16.14;62.02
63568;BME280;49715;42.386;20.434;2022-12-10T08:14:51;96301.03;;;16.16;61.99
63568;BME280;49715;42.386;20.434;2022-12-10T08:17:18;96303.25;;;16.19;61.83
63568;BME280;49715;42.386;20.434;2022-12-10T08:19:44;96300.19;;;16.22;61.78
63568;BME280;49715;42.386;20.434;2022-12-10T08:22:10;96298.13;;;16.24;61.81
63568;BME280;49715;42.386;20.434;2022-12-10T08:24:37;96297.31;;;16.23;61.49
63568;BME280;49715;42.386;20.434;2022-12-10T08:27:03;96291.78;;;16.25;61.66
63568;BME280;49715;42.386;20.434;2022-12-10T08:29:30;96296.09;;;16.26;61.60
63568;BME280;49715;42.386;20.434;2022-12-10T08:31:56;96293.66;;;16.18;61.65
63568;BME280;49715;42.386;20.434;2022-12-10T08:34:22;96300.34;;;15.89;62.14
63568;BME280;49715;42.386;20.434;2022-12-10T08:36:49;96301.44;;;15.61;62.76
63568;BME280;49715;42.386;20.434;2022-12-10T08:39:15;96310.69;;;15.52;63.07
63568;BME280;49715;42.386;20.434;2022-12-10T08:41:43;96302.75;;;15.32;64.41
63568;BME280;49715;42.386;20.434;2022-12-10T08:44:11;96293.78;;;15.27;63.86
63568;BME280;49715;42.386;20.434;2022-12-10T08:46:37;96301.16;;;15.18;64.16
63568;BME280;49715;42.386;20.434;2022-12-10T08:49:04;96294.84;;;14.99;64.86
63568;BME280;49715;42.386;20.434;2022-12-10T08:51:31;96296.28;;;14.75;66.49
63568;BME280;49715;42.386;20.434;2022-12-10T08:53:57;96292.81;;;14.61;65.37
63568;BME280;49715;42.386;20.434;2022-12-10T08:56:25;96299.94;;;14.48;65.58
63568;BME280;49715;42.386;20.434;2022-12-10T08:58:51;96289.69;;;14.31;66.07
63568;BME280;49715;42.386;20.434;2022-12-10T09:01:18;96295.59;;;14.27;66.35
63568;BME280;49715;42.386;20.434;2022-12-10T09:03:45;96290.31;;;14.20;66.81
63568;BME280;49715;42.386;20.434;2022-12-10T09:06:16;96272.75;;;14.12;66.91
63568;BME280;49715;42.386;20.434;2022-12-10T09:08:44;96280.69;;;14.12;67.21
63568;BME280;49715;42.386;20.434;2022-12-10T09:11:21;96260.09;;;14.01;67.50
63568;BME280;49715;42.386;20.434;2022-12-10T09:13:49;96276.19;;;14.06;67.42
63568;BME280;49715;42.386;20.434;2022-12-10T09:16:16;96269.06;;;14.07;67.67
63568;BME280;49715;42.386;20.434;2022-12-10T09:18:43;96259.28;;;14.01;67.59
63568;BME280;49715;42.386;20.434;2022-12-10T09:21:11;96265.56;;;13.93;69.28
63568;BME280;49715;42.386;20.434;2022-12-10T09:23:39;96268.81;;;13.95;68.16
63568;BME280;49715;42.386;20.434;2022-12-10T09:26:06;96266.97;;;13.82;70.45
63568;BME280;49715;42.386;20.434;2022-12-10T09:28:33;96263.28;;;13.77;68.33
63568;BME280;49715;42.386;20.434;2022-12-10T09:31:00;96260.22;;;13.80;68.50
63568;BME280;49715;42.386;20.434;2022-12-10T09:33:27;96249.22;;;13.76;68.49
63568;BME280;49715;42.386;20.434;2022-12-10T09:35:54;96249.81;;;13.72;68.83
63568;BME280;49715;42.386;20.434;2022-12-10T09:38:20;96254.28;;;13.71;69.11
63568;BME280;49715;42.386;20.434;2022-12-10T09:41:04;96242.28;;;13.75;69.22
63568;BME280;49715;42.386;20.434;2022-12-10T09:43:50;96236.59;;;13.85;69.25
63568;BME280;49715;42.386;20.434;2022-12-10T09:51:45;96209.72;;;13.95;69.77
63568;BME280;49715;42.386;20.434;2022-12-10T09:56:45;96214.63;;;13.98;69.99
63568;BME280;49715;42.386;20.434;2022-12-10T09:59:34;96208.94;;;14.01;70.12
63568;BME280;49715;42.386;20.434;2022-12-10T10:02:10;96201.00;;;14.01;70.02
63568;BME280;49715;42.386;20.434;2022-12-10T10:04:42;96196.69;;;13.93;70.15
63568;BME280;49715;42.386;20.434;2022-12-10T10:07:26;96198.91;;;13.89;70.02
63568;BME280;49715;42.386;20.434;2022-12-10T10:10:21;96199.34;;;13.93;71.03
63568;BME280;49715;42.386;20.434;2022-12-10T10:12:50;96176.91;;;13.89;70.35
63568;BME280;49715;42.386;20.434;2022-12-10T10:15:24;96176.09;;;13.95;70.42
63568;BME280;49715;42.386;20.434;2022-12-10T10:17:53;96171.84;;;14.01;70.28
63568;BME280;49715;42.386;20.434;2022-12-10T10:20:22;96151.47;;;14.01;70.43
63568;BME280;49715;42.386;20.434;2022-12-10T10:22:49;96149.03;;;14.06;70.49
63568;BME280;49715;42.386;20.434;2022-12-10T10:25:18;96139.84;;;14.09;70.42
63568;BME280;49715;42.386;20.434;2022-12-10T10:27:45;96143.53;;;14.08;70.37
63568;BME280;49715;42.386;20.434;2022-12-10T10:30:21;96130.69;;;14.11;70.40
63568;BME280;49715;42.386;20.434;2022-12-10T10:32:53;96125.78;;;14.22;70.54
63568;BME280;49715;42.386;20.434;2022-12-10T10:35:33;96130.66;;;14.25;70.40
63568;BME280;49715;42.386;20.434;2022-12-10T10:38:21;96108.66;;;14.17;70.59
63568;BME280;49715;42.386;20.434;2022-12-10T10:40:52;96111.09;;;14.19;70.30
63568;BME280;49715;42.386;20.434;2022-12-10T10:43:33;96124.16;;;14.21;70.67
63568;BME280;49715;42.386;20.434;2022-12-10T10:48:29;96123.94;;;14.35;70.40
63568;BME280;49715;42.386;20.434;2022-12-10T10:56:20;96095.38;;;14.44;70.42
63568;BME280;49715;42.386;20.434;2022-12-10T11:04:13;96085.19;;;14.61;70.44
63568;BME280;49715;42.386;20.434;2022-12-10T11:06:41;96074.13;;;14.64;70.03
63568;BME280;49715;42.386;20.434;2022-12-10T11:09:20;96063.75;;;14.69;70.22
63568;BME280;49715;42.386;20.434;2022-12-10T11:11:51;96059.25;;;14.70;70.36
63568;BME280;49715;42.386;20.434;2022-12-10T11:14:26;96055.13;;;14.74;70.32
63568;BME280;49715;42.386;20.434;2022-12-10T11:19:43;96043.06;;;14.84;70.37
63568;BME280;49715;42.386;20.434;2022-12-10T11:22:22;96023.25;;;14.93;70.42
63568;BME280;49715;42.386;20.434;2022-12-10T11:24:49;96017.84;;;15.07;70.22
63568;BME280;49715;42.386;20.434;2022-12-10T11:30:14;96011.41;;;15.28;70.31
63568;BME280;49715;42.386;20.434;2022-12-10T11:35:29;96027.63;;;15.44;69.98
63568;BME280;49715;42.386;20.434;2022-12-10T11:38:26;96021.75;;;15.36;69.66
63568;BME280;49715;42.386;20.434;2022-12-10T11:52:05;95977.72;;;15.53;69.22
63568;BME280;49715;42.386;20.434;2022-12-10T12:00:44;95954.91;;;15.70;68.88
63568;BME280;49715;42.386;20.434;2022-12-10T12:14:26;95950.09;;;16.41;67.84
63568;BME280;49715;42.386;20.434;2022-12-10T12:17:31;95947.09;;;16.49;67.57
63568;BME280;49715;42.386;20.434;2022-12-10T12:20:03;95932.94;;;16.55;67.34
63568;BME280;49715;42.386;20.434;2022-12-10T12:22:42;95918.81;;;16.55;67.29
63568;BME280;49715;42.386;20.434;2022-12-10T12:25:27;95912.78;;;16.47;67.09
63568;BME280;49715;42.386;20.434;2022-12-10T12:28:02;95920.97;;;16.46;66.93
63568;BME280;49715;42.386;20.434;2022-12-10T12:30:32;95914.34;;;16.37;66.90
63568;BME280;49715;42.386;20.434;2022-12-10T12:33:13;95902.28;;;16.34;66.91
63568;BME280;49715;42.386;20.434;2022-12-10T12:36:00;95891.97;;;16.26;66.96
63568;BME280;49715;42.386;20.434;2022-12-10T12:38:37;95891.75;;;16.28;67.01
63568;BME280;49715;42.386;20.434;2022-12-10T12:41:32;95890.19;;;16.20;66.92
63568;BME280;49715;42.386;20.434;2022-12-10T12:44:33;95882.69;;;16.17;67.09
63568;BME280;49715;42.386;20.434;2022-12-10T12:47:16;95885.19;;;16.12;67.17
63568;BME280;49715;42.386;20.434;2022-12-10T12:49:48;95885.34;;;16.17;67.05
63568;BME280;49715;42.386;20.434;2022-12-10T12:54:59;95870.63;;;16.14;67.19
63568;BME280;49715;42.386;20.434;2022-12-10T12:57:36;95870.88;;;16.13;67.31
63568;BME280;49715;42.386;20.434;2022-12-10T13:00:14;95854.94;;;16.13;67.33
63568;BME280;49715;42.386;20.434;2022-12-10T13:05:36;95835.50;;;16.12;67.34
63568;BME280;49715;42.386;20.434;2022-12-10T13:13:35;95837.94;;;16.14;67.29
63568;BME280;49715;42.386;20.434;2022-12-10T13:22:06;95818.09;;;15.98;67.24
63568;BME280;49715;42.386;20.434;2022-12-10T13:24:47;95824.00;;;16.00;67.21
63568;BME280;49715;42.386;20.434;2022-12-10T13:27:35;95805.34;;;15.88;67.32
63568;BME280;49715;42.386;20.434;2022-12-10T13:42:39;95814.50;;;15.74;67.69
63568;BME280;49715;42.386;20.434;2022-12-10T13:45:31;95814.75;;;15.73;67.73
63568;BME280;49715;42.386;20.434;2022-12-10T13:50:55;95795.22;;;15.60;67.84
63568;BME280;49715;42.386;20.434;2022-12-10T13:56:23;95773.91;;;15.49;68.33
63568;BME280;49715;42.386;20.434;2022-12-10T14:04:21;95760.41;;;15.13;69.10
63568;BME280;49715;42.386;20.434;2022-12-10T14:06:53;95766.81;;;15.06;69.31
63568;BME280;49715;42.386;20.434;2022-12-10T14:09:23;95759.06;;;15.04;69.56
63568;BME280;49715;42.386;20.434;2022-12-10T14:11:58;95760.09;;;15.03;69.74
63568;BME280;49715;42.386;20.434;2022-12-10T14:14:33;95764.38;;;15.04;69.64
63568;BME280;49715;42.386;20.434;2022-12-10T14:17:14;95745.84;;;14.98;69.86
63568;BME280;49715;42.386;20.434;2022-12-10T14:19:42;95746.22;;;15.01;69.96
63568;BME280;49715;42.386;20.434;2022-12-10T14:22:21;95743.03;;;14.92;69.96
63568;BME280;49715;42.386;20.434;2022-12-10T14:24:50;95742.38;;;14.97;70.17
63568;BME280;49715;42.386;20.434;2022-12-10T14:27:24;95728.56;;;14.95;70.14
63568;BME280;49715;42.386;20.434;2022-12-10T14:29:59;95740.63;;;14.91;70.25
63568;BME280;49715;42.386;20.434;2022-12-10T14:32:36;95739.38;;;14.93;70.30
63568;BME280;49715;42.386;20.434;2022-12-10T14:35:05;95745.50;;;14.94;70.20
63568;BME280;49715;42.386;20.434;2022-12-10T14:37:36;95733.31;;;14.86;70.53
63568;BME280;49715;42.386;20.434;2022-12-10T14:40:06;95737.22;;;14.84;70.33
63568;BME280;49715;42.386;20.434;2022-12-10T14:42:34;95744.34;;;14.83;70.43
63568;BME280;49715;42.386;20.434;2022-12-10T14:45:05;95735.22;;;14.79;70.62
63568;BME280;49715;42.386;20.434;2022-12-10T14:47:36;95737.28;;;14.77;70.88
63568;BME280;49715;42.386;20.434;2022-12-10T14:50:09;95738.31;;;14.76;70.91
63568;BME280;49715;42.386;20.434;2022-12-10T14:52:50;95736.47;;;14.77;70.94
63568;BME280;49715;42.386;20.434;2022-12-10T14:55:19;95731.00;;;14.72;70.93
63568;BME280;49715;42.386;20.434;2022-12-10T14:57:59;95727.53;;;14.71;70.78
63568;BME280;49715;42.386;20.434;2022-12-10T15:00:27;95732.03;;;14.71;71.20
63568;BME280;49715;42.386;20.434;2022-12-10T15:02:58;95724.97;;;14.64;71.24
63568;BME280;49715;42.386;20.434;2022-12-10T15:05:29;95737.56;;;14.69;71.34
63568;BME280;49715;42.386;20.434;2022-12-10T15:08:07;95717.81;;;14.65;71.42